sensor_id;sensor_type;location;lat;lon;timestamp;pressure;altitude;pressure_sealevel;temperature;humidity
25664;BME280;13522;50.018;20.014;2023-01-28T00:00:21;99316.03;;;-0.42;100.00
25664;BME280;13522;50.018;20.014;2023-01-28T00:03:35;99305.77;;;-0.46;100.00
25664;BME280;13522;50.018;20.014;2023-01-28T00:06:47;99310.92;;;-0.45;100.00
25664;BME280;13522;50.018;20.014;2023-01-28T00:09:59;99310.92;;;-0.45;100.00
25664;BME280;13522;50.018;20.014;2023-01-28T00:13:13;99315.35;;;-0.47;100.00
25664;BME280;13522;50.018;20.014;2023-01-28T00:16:26;99308.24;;;-0.43;100.00
25664;BME280;13522;50.018;20.014;2023-01-28T00:19:38;99304.81;;;-0.44;100.00
25664;BME280;13522;50.018;20.014;2023-01-28T00:22:50;99312.92;;;-0.51;100.00
25664;BME280;13522;50.018;20.014;2023-01-28T00:26:04;99319.61;;;-0.44;100.00
25664;BME280;13522;50.018;20.014;2023-01-28T00:29:18;99315.59;;;-0.53;100.00
25664;BME280;13522;50.018;20.014;2023-01-28T00:32:30;99325.06;;;-0.50;100.00
25664;BME280;13522;50.018;20.014;2023-01-28T00:35:43;99324.93;;;-0.47;100.00
25664;BME280;13522;50.018;20.014;2023-01-28T00:38:58;99319.84;;;-0.50;100.00
25664;BME280;13522;50.018;20.014;2023-01-28T00:42:10;99317.31;;;-0.52;100.00
25664;BME280;13522;50.018;20.014;2023-01-28T00:45:22;99323.25;;;-0.48;100.00
25664;BME280;13522;50.018;20.014;2023-01-28T00:48:35;99326.64;;;-0.46;100.00
25664;BME280;13522;50.018;20.014;2023-01-28T00:51:47;99325.06;;;-0.50;100.00
25664;BME280;13522;50.018;20.014;2023-01-28T00:54:59;99331.14;;;-0.50;100.00
25664;BME280;13522;50.018;20.014;2023-01-28T00:58:11;99326.20;;;-0.57;100.00
25664;BME280;13522;50.018;20.014;2023-01-28T01:01:25;99320.70;;;-0.50;100.00
25664;BME280;13522;50.018;20.014;2023-01-28T01:04:38;99325.72;;;-0.45;100.00
25664;BME280;13522;50.018;20.014;2023-01-28T01:07:52;99328.57;;;-0.51;100.00
25664;BME280;13522;50.018;20.014;2023-01-28T01:11:05;99318.99;;;-0.51;100.00
25664;BME280;13522;50.018;20.014;2023-01-28T01:14:18;99324.28;;;-0.52;100.00
25664;BME280;13522;50.018;20.014;2023-01-28T01:17:31;99327.13;;;-0.58;100.00
25664;BME280;13522;50.018;20.014;2023-01-28T01:20:44;99328.70;;;-0.54;100.00
25664;BME280;13522;50.018;20.014;2023-01-28T01:23:58;99329.42;;;-0.51;100.00
25664;BME280;13522;50.018;20.014;2023-01-28T01:27:10;99333.78;;;-0.51;100.00
25664;BME280;13522;50.018;20.014;2023-01-28T01:30:30;99328.57;;;-0.51;100.00
25664;BME280;13522;50.018;20.014;2023-01-28T01:33:54;99331.86;;;-0.46;100.00
25664;BME280;13522;50.018;20.014;2023-01-28T01:37:06;99337.19;;;-0.49;100.00
25664;BME280;13522;50.018;20.014;2023-01-28T01:40:19;99336.36;;;-0.50;100.00
25664;BME280;13522;50.018;20.014;2023-01-28T01:43:46;99344.36;;;-0.54;100.00
25664;BME280;13522;50.018;20.014;2023-01-28T01:47:00;99341.68;;;-0.53;100.00
25664;BME280;13522;50.018;20.014;2023-01-28T01:50:20;99346.17;;;-0.56;100.00
25664;BME280;13522;50.018;20.014;2023-01-28T01:53:33;99339.07;;;-0.53;100.00
25664;BME280;13522;50.018;20.014;2023-01-28T01:57:03;99347.86;;;-0.55;100.00
25664;BME280;13522;50.018;20.014;2023-01-28T02:00:29;99336.77;;;-0.60;100.00
25664;BME280;13522;50.018;20.014;2023-01-28T02:03:58;99334.16;;;-0.60;100.00
25664;BME280;13522;50.018;20.014;2023-01-28T02:07:14;99346.24;;;-0.58;100.00
25664;BME280;13522;50.018;20.014;2023-01-28T02:10:27;99346.04;;;-0.53;100.00
25664;BME280;13522;50.018;20.014;2023-01-28T02:13:43;99349.81;;;-0.60;100.00
25664;BME280;13522;50.018;20.014;2023-01-28T02:16:56;99347.20;;;-0.60;100.00
25664;BME280;13522;50.018;20.014;2023-01-28T02:20:44;99351.25;;;-0.53;100.00
25664;BME280;13522;50.018;20.014;2023-01-28T02:24:16;99351.16;;;-0.50;100.00
25664;BME280;13522;50.018;20.014;2023-01-28T02:27:49;99361.59;;;-0.50;100.00
25664;BME280;13522;50.018;20.014;2023-01-28T02:31:13;99352.05;;;-0.51;100.00
25664;BME280;13522;50.018;20.014;2023-01-28T02:34:46;99354.72;;;-0.53;100.00
25664;BME280;13522;50.018;20.014;2023-01-28T02:38:03;99347.99;;;-0.58;100.00
25664;BME280;13522;50.018;20.014;2023-01-28T02:41:22;99351.63;;;-0.62;100.00
25664;BME280;13522;50.018;20.014;2023-01-28T02:44:37;99350.60;;;-0.58;100.00
25664;BME280;13522;50.018;20.014;2023-01-28T02:47:49;99352.35;;;-0.59;100.00
25664;BME280;13522;50.018;20.014;2023-01-28T02:51:13;99354.06;;;-0.58;100.00
25664;BME280;13522;50.018;20.014;2023-01-28T02:54:35;99358.80;;;-0.67;100.00
25664;BME280;13522;50.018;20.014;2023-01-28T02:57:53;99359.39;;;-0.61;100.00
25664;BME280;13522;50.018;20.014;2023-01-28T03:01:14;99349.81;;;-0.60;100.00
25664;BME280;13522;50.018;20.014;2023-01-28T03:04:32;99357.64;;;-0.60;100.00
25664;BME280;13522;50.018;20.014;2023-01-28T03:07:47;99363.74;;;-0.61;100.00
25664;BME280;13522;50.018;20.014;2023-01-28T03:11:00;99360.25;;;-0.60;100.00
25664;BME280;13522;50.018;20.014;2023-01-28T03:14:26;99358.42;;;-0.58;100.00
25664;BME280;13522;50.018;20.014;2023-01-28T03:17:57;99356.47;;;-0.53;100.00
25664;BME280;13522;50.018;20.014;2023-01-28T03:21:30;99356.47;;;-0.53;100.00
25664;BME280;13522;50.018;20.014;2023-01-28T03:25:00;99350.47;;;-0.55;100.00
25664;BME280;13522;50.018;20.014;2023-01-28T03:28:30;99347.86;;;-0.55;100.00
25664;BME280;13522;50.018;20.014;2023-01-28T03:31:59;99350.30;;;-0.51;100.00
25664;BME280;13522;50.018;20.014;2023-01-28T03:35:29;99349.58;;;-0.54;100.00
25664;BME280;13522;50.018;20.014;2023-01-28T03:38:59;99349.58;;;-0.54;100.00
25664;BME280;13522;50.018;20.014;2023-01-28T03:42:23;99356.70;;;-0.59;100.00
25664;BME280;13522;50.018;20.014;2023-01-28T03:45:37;99355.89;;;-0.60;100.00
25664;BME280;13522;50.018;20.014;2023-01-28T03:49:02;99358.66;;;-0.64;100.00
25664;BME280;13522;50.018;20.014;2023-01-28T03:52:15;99358.66;;;-0.64;100.00
25664;BME280;13522;50.018;20.014;2023-01-28T03:55:46;99357.70;;;-0.62;100.00
25664;BME280;13522;50.018;20.014;2023-01-28T03:59:01;99356.98;;;-0.65;100.00
25664;BME280;13522;50.018;20.014;2023-01-28T04:02:26;99363.88;;;-0.64;100.00
25664;BME280;13522;50.018;20.014;2023-01-28T04:06:00;99362.92;;;-0.62;100.00
25664;BME280;13522;50.018;20.014;2023-01-28T04:09:25;99361.99;;;-0.61;100.00
25664;BME280;13522;50.018;20.014;2023-01-28T04:13:08;99365.56;;;-0.63;100.00
25664;BME280;13522;50.018;20.014;2023-01-28T04:16:33;99365.70;;;-0.66;100.00
25664;BME280;13522;50.018;20.014;2023-01-28T04:19:45;99364.05;;;-0.69;100.00
25664;BME280;13522;50.018;20.014;2023-01-28T04:22:59;99369.33;;;-0.70;100.00
25664;BME280;13522;50.018;20.014;2023-01-28T04:26:12;99373.59;;;-0.68;100.00
25664;BME280;13522;50.018;20.014;2023-01-28T04:29:24;99372.49;;;-0.62;100.00
25664;BME280;13522;50.018;20.014;2023-01-28T04:32:38;99370.78;;;-0.63;100.00
25664;BME280;13522;50.018;20.014;2023-01-28T04:36:28;99373.45;;;-0.65;100.00
25664;BME280;13522;50.018;20.014;2023-01-28T04:39:49;99372.56;;;-0.64;100.00
25664;BME280;13522;50.018;20.014;2023-01-28T04:43:20;99374.67;;;-0.73;100.00
25664;BME280;13522;50.018;20.014;2023-01-28T04:47:11;99374.44;;;-0.67;100.00
25664;BME280;13522;50.018;20.014;2023-01-28T04:50:56;99383.95;;;-0.66;100.00
25664;BME280;13522;50.018;20.014;2023-01-28T04:54:10;99384.81;;;-0.66;100.00
25664;BME280;13522;50.018;20.014;2023-01-28T04:57:37;99381.58;;;-0.72;100.00
25664;BME280;13522;50.018;20.014;2023-01-28T05:00:55;99383.30;;;-0.71;100.00
25664;BME280;13522;50.018;20.014;2023-01-28T05:04:10;99384.97;;;-0.70;100.00
25664;BME280;13522;50.018;20.014;2023-01-28T05:07:35;99382.44;;;-0.72;100.00
25664;BME280;13522;50.018;20.014;2023-01-28T05:11:15;99389.17;;;-0.66;100.00
25664;BME280;13522;50.018;20.014;2023-01-28T05:14:40;99387.52;;;-0.69;100.00
25664;BME280;13522;50.018;20.014;2023-01-28T05:21:21;99395.24;;;-0.66;100.00
25664;BME280;13522;50.018;20.014;2023-01-28T05:25:22;99403.80;;;-0.62;100.00
25664;BME280;13522;50.018;20.014;2023-01-28T05:29:03;99412.77;;;-0.69;100.00
25664;BME280;13522;50.018;20.014;2023-01-28T05:32:17;99408.67;;;-0.76;100.00
25664;BME280;13522;50.018;20.014;2023-01-28T05:35:29;99417.42;;;-0.77;100.00
25664;BME280;13522;50.018;20.014;2023-01-28T05:39:28;99410.95;;;-0.67;100.00
25664;BME280;13522;50.018;20.014;2023-01-28T05:49:09;99410.09;;;-0.68;100.00
25664;BME280;13522;50.018;20.014;2023-01-28T05:52:30;99415.38;;;-0.69;100.00
25664;BME280;13522;50.018;20.014;2023-01-28T05:55:44;99424.09;;;-0.70;100.00
25664;BME280;13522;50.018;20.014;2023-01-28T05:58:58;99419.80;;;-0.71;100.00
25664;BME280;13522;50.018;20.014;2023-01-28T06:02:20;99418.08;;;-0.72;100.00
25664;BME280;13522;50.018;20.014;2023-01-28T06:05:34;99435.38;;;-0.70;100.00
25664;BME280;13522;50.018;20.014;2023-01-28T06:08:46;99431.91;;;-0.70;100.00
25664;BME280;13522;50.018;20.014;2023-01-28T06:12:00;99437.13;;;-0.70;100.00
25664;BME280;13522;50.018;20.014;2023-01-28T06:15:14;99442.13;;;-0.64;100.00
25664;BME280;13522;50.018;20.014;2023-01-28T06:18:37;99450.23;;;-0.72;100.00
25664;BME280;13522;50.018;20.014;2023-01-28T06:21:50;99454.50;;;-0.69;100.00
25664;BME280;13522;50.018;20.014;2023-01-28T06:25:04;99453.80;;;-0.74;100.00
25664;BME280;13522;50.018;20.014;2023-01-28T06:31:18;99465.72;;;-0.67;100.00
25664;BME280;13522;50.018;20.014;2023-01-28T06:40:31;99469.38;;;-0.73;100.00
25664;BME280;13522;50.018;20.014;2023-01-28T08:53:37;99546.45;;;-0.41;95.66
25664;BME280;13522;50.018;20.014;2023-01-28T08:59:52;99549.86;;;-0.39;95.43
25664;BME280;13522;50.018;20.014;2023-01-28T09:03:05;99548.23;;;-0.42;95.16
25664;BME280;13522;50.018;20.014;2023-01-28T09:06:17;99559.41;;;-0.38;95.59
25664;BME280;13522;50.018;20.014;2023-01-28T09:09:30;99565.58;;;-0.41;95.89
25664;BME280;13522;50.018;20.014;2023-01-28T09:12:42;99557.88;;;-0.44;95.03
25664;BME280;13522;50.018;20.014;2023-01-28T09:15:55;99558.67;;;-0.42;95.50
25664;BME280;13522;50.018;20.014;2023-01-28T09:19:07;99550.63;;;-0.36;95.62
25664;BME280;13522;50.018;20.014;2023-01-28T09:22:20;99557.69;;;-0.39;95.52
25664;BME280;13522;50.018;20.014;2023-01-28T09:25:33;99562.39;;;-0.49;94.73
25664;BME280;13522;50.018;20.014;2023-01-28T09:28:45;99559.41;;;-0.38;95.36
25664;BME280;13522;50.018;20.014;2023-01-28T09:31:58;99557.59;;;-0.36;96.32
25664;BME280;13522;50.018;20.014;2023-01-28T09:35:10;99560.77;;;-0.28;96.22
25664;BME280;13522;50.018;20.014;2023-01-28T09:38:22;99552.02;;;-0.27;95.88
25664;BME280;13522;50.018;20.014;2023-01-28T09:41:39;99551.13;;;-0.26;95.30
25664;BME280;13522;50.018;20.014;2023-01-28T09:45:01;99556.91;;;-0.18;95.00
25664;BME280;13522;50.018;20.014;2023-01-28T09:48:18;99558.73;;;-0.20;94.71
25664;BME280;13522;50.018;20.014;2023-01-28T09:51:37;99556.78;;;-0.15;94.89
25664;BME280;13522;50.018;20.014;2023-01-28T09:54:53;99554.34;;;-0.20;94.54
25664;BME280;13522;50.018;20.014;2023-01-28T09:58:10;99555.03;;;-0.15;95.38
25664;BME280;13522;50.018;20.014;2023-01-28T10:01:37;99553.95;;;-0.09;95.08
25664;BME280;13522;50.018;20.014;2023-01-28T10:05:02;99548.43;;;-0.02;95.61
25664;BME280;13522;50.018;20.014;2023-01-28T10:08:24;99547.47;;;0.01;95.53
25664;BME280;13522;50.018;20.014;2023-01-28T10:11:48;99550.14;;;-0.01;94.35
25664;BME280;13522;50.018;20.014;2023-01-28T10:15:30;99544.30;;;-0.07;93.20
25664;BME280;13522;50.018;20.014;2023-01-28T10:19:01;99544.53;;;-0.13;94.10
25664;BME280;13522;50.018;20.014;2023-01-28T10:22:19;99537.26;;;-0.05;94.52
25664;BME280;13522;50.018;20.014;2023-01-28T10:25:31;99541.39;;;0.00;94.68
25664;BME280;13522;50.018;20.014;2023-01-28T10:28:51;99544.30;;;-0.07;93.97
25664;BME280;13522;50.018;20.014;2023-01-28T10:32:01;99545.03;;;-0.04;95.01
25664;BME280;13522;50.018;20.014;2023-01-28T10:35:15;99548.92;;;0.08;95.02
25664;BME280;13522;50.018;20.014;2023-01-28T10:38:28;99542.88;;;0.08;94.11
25664;BME280;13522;50.018;20.014;2023-01-28T10:41:41;99543.59;;;0.11;93.57
25664;BME280;13522;50.018;20.014;2023-01-28T10:44:59;99536.66;;;0.10;93.87
25664;BME280;13522;50.018;20.014;2023-01-28T10:48:18;99534.91;;;0.11;94.95
25664;BME280;13522;50.018;20.014;2023-01-28T10:51:34;99530.55;;;0.11;94.98
25664;BME280;13522;50.018;20.014;2023-01-28T10:54:57;99534.73;;;0.15;95.33
25664;BME280;13522;50.018;20.014;2023-01-28T10:58:17;99535.93;;;0.07;94.28
25664;BME280;13522;50.018;20.014;2023-01-28T11:01:42;99535.08;;;0.06;95.15
25664;BME280;13522;50.018;20.014;2023-01-28T11:05:05;99531.02;;;-0.01;93.62
25664;BME280;13522;50.018;20.014;2023-01-28T11:08:24;99535.44;;;-0.03;94.07
25664;BME280;13522;50.018;20.014;2023-01-28T11:11:37;99530.12;;;0.00;95.59
25664;BME280;13522;50.018;20.014;2023-01-28T11:14:52;99538.71;;;0.02;95.06
25664;BME280;13522;50.018;20.014;2023-01-28T11:18:07;99532.97;;;-0.06;94.52
25664;BME280;13522;50.018;20.014;2023-01-28T11:21:26;99535.34;;;0.00;93.80
25664;BME280;13522;50.018;20.014;2023-01-28T11:24:40;99531.73;;;0.03;94.31
25664;BME280;13522;50.018;20.014;2023-01-28T11:27:54;99533.63;;;-0.01;94.11
25664;BME280;13522;50.018;20.014;2023-01-28T11:31:07;99534.65;;;-0.05;94.57
25664;BME280;13522;50.018;20.014;2023-01-28T11:34:25;99528.53;;;-0.04;92.60
25664;BME280;13522;50.018;20.014;2023-01-28T11:37:37;99520.80;;;-0.07;92.59
25664;BME280;13522;50.018;20.014;2023-01-28T11:40:55;99518.92;;;-0.04;92.84
25664;BME280;13522;50.018;20.014;2023-01-28T11:44:14;99513.46;;;0.03;92.61
25664;BME280;13522;50.018;20.014;2023-01-28T11:47:34;99519.00;;;0.17;93.24
25664;BME280;13522;50.018;20.014;2023-01-28T11:50:55;99520.65;;;0.19;92.95
25664;BME280;13522;50.018;20.014;2023-01-28T11:54:18;99522.81;;;0.08;92.84
25664;BME280;13522;50.018;20.014;2023-01-28T11:57:39;99519.30;;;0.09;93.21
25664;BME280;13522;50.018;20.014;2023-01-28T12:00:59;99516.80;;;0.06;93.38
25664;BME280;13522;50.018;20.014;2023-01-28T12:04:24;99522.77;;;0.10;94.08
25664;BME280;13522;50.018;20.014;2023-01-28T12:07:50;99513.95;;;0.12;94.28
25664;BME280;13522;50.018;20.014;2023-01-28T12:11:12;99514.63;;;0.17;93.80
25664;BME280;13522;50.018;20.014;2023-01-28T12:14:35;99506.66;;;0.20;94.86
25664;BME280;13522;50.018;20.014;2023-01-28T12:18:03;99517.59;;;0.08;93.78
25664;BME280;13522;50.018;20.014;2023-01-28T12:21:27;99516.86;;;0.05;94.21
25664;BME280;13522;50.018;20.014;2023-01-28T12:24:50;99514.08;;;0.09;94.89
25664;BME280;13522;50.018;20.014;2023-01-28T12:28:17;99509.16;;;0.02;94.62
25664;BME280;13522;50.018;20.014;2023-01-28T12:31:59;99520.33;;;0.05;94.97
25664;BME280;13522;50.018;20.014;2023-01-28T12:35:26;99516.00;;;0.04;94.74
25664;BME280;13522;50.018;20.014;2023-01-28T12:38:46;99520.56;;;-0.01;95.04
25664;BME280;13522;50.018;20.014;2023-01-28T12:42:06;99513.66;;;-0.02;94.11
25664;BME280;13522;50.018;20.014;2023-01-28T12:45:23;99521.50;;;-0.02;95.80
25664;BME280;13522;50.018;20.014;2023-01-28T12:48:40;99526.72;;;-0.02;95.57
25664;BME280;13522;50.018;20.014;2023-01-28T12:52:00;99517.23;;;-0.05;95.70
25664;BME280;13522;50.018;20.014;2023-01-28T12:55:16;99516.14;;;0.01;95.59
25664;BME280;13522;50.018;20.014;2023-01-28T12:58:38;99524.90;;;0.00;95.25
25664;BME280;13522;50.018;20.014;2023-01-28T13:01:56;99523.67;;;0.09;94.94
25664;BME280;13522;50.018;20.014;2023-01-28T13:05:15;99523.19;;;0.21;95.06
25664;BME280;13522;50.018;20.014;2023-01-28T13:08:30;99520.03;;;0.34;94.76
25664;BME280;13522;50.018;20.014;2023-01-28T13:11:42;99518.09;;;0.39;93.60
25664;BME280;13522;50.018;20.014;2023-01-28T13:14:55;99518.99;;;0.38;92.47
25664;BME280;13522;50.018;20.014;2023-01-28T13:18:26;99528.66;;;0.36;92.12
25664;BME280;13522;50.018;20.014;2023-01-28T13:21:53;99531.20;;;0.38;92.27
25664;BME280;13522;50.018;20.014;2023-01-28T13:25:20;99537.59;;;0.31;92.50
25664;BME280;13522;50.018;20.014;2023-01-28T13:28:34;99534.59;;;0.40;92.34
25664;BME280;13522;50.018;20.014;2023-01-28T13:31:48;99534.91;;;0.32;91.37
25664;BME280;13522;50.018;20.014;2023-01-28T13:35:04;99537.42;;;0.35;91.75
25664;BME280;13522;50.018;20.014;2023-01-28T13:38:30;99533.23;;;0.31;90.83
25664;BME280;13522;50.018;20.014;2023-01-28T13:41:45;99535.70;;;0.34;91.27
25664;BME280;13522;50.018;20.014;2023-01-28T13:45:11;99542.67;;;0.34;90.65
25664;BME280;13522;50.018;20.014;2023-01-28T13:48:34;99537.52;;;0.32;90.39
25664;BME280;13522;50.018;20.014;2023-01-28T13:52:00;99542.27;;;0.23;89.58
25664;BME280;13522;50.018;20.014;2023-01-28T13:55:20;99551.75;;;0.25;90.86
25664;BME280;13522;50.018;20.014;2023-01-28T13:59:09;99549.07;;;0.27;90.14
25664;BME280;13522;50.018;20.014;2023-01-28T14:03:17;99554.59;;;0.19;90.69
25664;BME280;13522;50.018;20.014;2023-01-28T14:10:42;99556.28;;;0.20;90.60
25664;BME280;13522;50.018;20.014;2023-01-28T14:14:19;99553.91;;;0.14;90.18
25664;BME280;13522;50.018;20.014;2023-01-28T14:17:42;99561.64;;;0.17;90.82
25664;BME280;13522;50.018;20.014;2023-01-28T14:20:58;99558.89;;;0.20;91.91
25664;BME280;13522;50.018;20.014;2023-01-28T14:24:16;99564.02;;;0.23;90.93
25664;BME280;13522;50.018;20.014;2023-01-28T14:27:34;99557.87;;;0.24;90.98
25664;BME280;13522;50.018;20.014;2023-01-28T14:30:46;99562.30;;;0.22;90.47
25664;BME280;13522;50.018;20.014;2023-01-28T14:34:05;99564.91;;;0.22;90.84
25664;BME280;13522;50.018;20.014;2023-01-28T14:37:24;99569.24;;;0.23;91.25
25664;BME280;13522;50.018;20.014;2023-01-28T14:40:39;99569.08;;;0.28;92.10
25664;BME280;13522;50.018;20.014;2023-01-28T14:43:53;99578.73;;;0.26;91.43
25664;BME280;13522;50.018;20.014;2023-01-28T14:47:22;99565.60;;;0.27;91.88
25664;BME280;13522;50.018;20.014;2023-01-28T14:50:52;99570.03;;;0.25;92.24
25664;BME280;13522;50.018;20.014;2023-01-28T14:54:39;99572.88;;;0.19;91.38
25664;BME280;13522;50.018;20.014;2023-01-28T14:58:08;99582.41;;;0.20;91.89
25664;BME280;13522;50.018;20.014;2023-01-28T15:01:26;99579.99;;;0.16;92.29
25664;BME280;13522;50.018;20.014;2023-01-28T15:04:39;99574.56;;;0.20;93.59
25664;BME280;13522;50.018;20.014;2023-01-28T15:07:52;99584.35;;;0.15;93.91
25664;BME280;13522;50.018;20.014;2023-01-28T15:11:07;99592.98;;;0.17;94.76
25664;BME280;13522;50.018;20.014;2023-01-28T15:14:25;99588.88;;;0.10;94.43
25664;BME280;13522;50.018;20.014;2023-01-28T15:17:39;99592.28;;;0.12;94.92
25664;BME280;13522;50.018;20.014;2023-01-28T15:20:52;99588.62;;;0.18;96.94
25664;BME280;13522;50.018;20.014;2023-01-28T15:24:09;99596.25;;;0.22;95.85
25664;BME280;13522;50.018;20.014;2023-01-28T15:27:27;99599.66;;;0.24;96.23
25664;BME280;13522;50.018;20.014;2023-01-28T15:30:44;99592.02;;;0.20;96.58
25664;BME280;13522;50.018;20.014;2023-01-28T15:34:01;99602.27;;;0.24;97.82
25664;BME280;13522;50.018;20.014;2023-01-28T15:37:20;99604.88;;;0.24;98.30
25664;BME280;13522;50.018;20.014;2023-01-28T15:40:39;99609.22;;;0.25;97.73
25664;BME280;13522;50.018;20.014;2023-01-28T15:43:52;99602.03;;;0.30;97.56
25664;BME280;13522;50.018;20.014;2023-01-28T15:47:12;99613.41;;;0.29;97.35
25664;BME280;13522;50.018;20.014;2023-01-28T15:50:27;99616.36;;;0.20;96.77
25664;BME280;13522;50.018;20.014;2023-01-28T15:53:42;99618.87;;;0.23;98.15
25664;BME280;13522;50.018;20.014;2023-01-28T15:56:56;99619.53;;;0.28;98.24
25664;BME280;13522;50.018;20.014;2023-01-28T16:00:21;99613.28;;;0.32;99.05
25664;BME280;13522;50.018;20.014;2023-01-28T16:03:38;99621.02;;;0.35;99.00
25664;BME280;13522;50.018;20.014;2023-01-28T16:06:51;99614.80;;;0.38;99.10
25664;BME280;13522;50.018;20.014;2023-01-28T16:10:05;99616.02;;;0.29;98.22
25664;BME280;13522;50.018;20.014;2023-01-28T16:13:28;99613.28;;;0.32;99.13
25664;BME280;13522;50.018;20.014;2023-01-28T16:16:47;99621.12;;;0.32;99.40
25664;BME280;13522;50.018;20.014;2023-01-28T16:20:03;99621.25;;;0.29;99.14
25664;BME280;13522;50.018;20.014;2023-01-28T16:23:27;99617.05;;;0.25;99.00
25664;BME280;13522;50.018;20.014;2023-01-28T16:26:36;99621.58;;;0.20;99.31
25664;BME280;13522;50.018;20.014;2023-01-28T16:29:48;99621.34;;;0.26;100.00
25664;BME280;13522;50.018;20.014;2023-01-28T16:33:01;99631.70;;;0.29;100.00
25664;BME280;13522;50.018;20.014;2023-01-28T16:36:15;99622.34;;;0.24;100.00
25664;BME280;13522;50.018;20.014;2023-01-28T16:39:27;99628.39;;;0.24;100.00
25664;BME280;13522;50.018;20.014;2023-01-28T16:42:40;99624.16;;;0.22;100.00
25664;BME280;13522;50.018;20.014;2023-01-28T16:45:53;99631.52;;;0.11;100.00
25664;BME280;13522;50.018;20.014;2023-01-28T16:49:06;99635.66;;;0.16;100.00
25664;BME280;13522;50.018;20.014;2023-01-28T16:52:18;99635.56;;;0.19;100.00
25664;BME280;13522;50.018;20.014;2023-01-28T16:55:31;99631.93;;;0.23;100.00
25664;BME280;13522;50.018;20.014;2023-01-28T16:58:43;99638.80;;;0.26;100.00
25664;BME280;13522;50.018;20.014;2023-01-28T17:01:55;99645.66;;;0.28;100.00
25664;BME280;13522;50.018;20.014;2023-01-28T17:05:09;99636.36;;;0.21;100.00
25664;BME280;13522;50.018;20.014;2023-01-28T17:08:23;99647.70;;;0.20;100.00
25664;BME280;13522;50.018;20.014;2023-01-28T17:11:35;99647.59;;;0.23;100.00
25664;BME280;13522;50.018;20.014;2023-01-28T17:14:48;99641.75;;;0.17;100.00
25664;BME280;13522;50.018;20.014;2023-01-28T17:18:01;99647.83;;;0.17;100.00
25664;BME280;13522;50.018;20.014;2023-01-28T17:21:13;99646.23;;;0.13;100.00
25664;BME280;13522;50.018;20.014;2023-01-28T17:24:26;99640.95;;;0.15;100.00
25664;BME280;13522;50.018;20.014;2023-01-28T17:27:40;99638.50;;;0.10;100.00
25664;BME280;13522;50.018;20.014;2023-01-28T17:30:53;99642.70;;;0.14;100.00
25664;BME280;13522;50.018;20.014;2023-01-28T17:34:05;99651.56;;;0.10;100.00
25664;BME280;13522;50.018;20.014;2023-01-28T17:37:17;99647.33;;;0.08;100.00
25664;BME280;13522;50.018;20.014;2023-01-28T17:40:30;99654.14;;;0.12;100.00
25664;BME280;13522;50.018;20.014;2023-01-28T17:43:45;99648.95;;;0.10;100.00
25664;BME280;13522;50.018;20.014;2023-01-28T17:47:03;99644.48;;;0.14;100.00
25664;BME280;13522;50.018;20.014;2023-01-28T17:50:15;99646.17;;;0.15;100.00
25664;BME280;13522;50.018;20.014;2023-01-28T17:53:27;99643.91;;;0.06;100.00
25664;BME280;13522;50.018;20.014;2023-01-28T17:56:39;99654.87;;;0.15;100.00
25664;BME280;13522;50.018;20.014;2023-01-28T17:59:51;99659.06;;;0.19;100.00
25664;BME280;13522;50.018;20.014;2023-01-28T18:03:04;99664.16;;;0.22;100.00
25664;BME280;13522;50.018;20.014;2023-01-28T18:06:17;99663.27;;;0.23;100.00
25664;BME280;13522;50.018;20.014;2023-01-28T18:09:29;99661.45;;;0.25;100.00
25664;BME280;13522;50.018;20.014;2023-01-28T18:12:41;99670.09;;;0.27;100.00
25664;BME280;13522;50.018;20.014;2023-01-28T18:15:53;99671.77;;;0.28;100.00
25664;BME280;13522;50.018;20.014;2023-01-28T18:19:05;99677.98;;;0.26;100.00
25664;BME280;13522;50.018;20.014;2023-01-28T18:22:17;99684.04;;;0.26;100.00
25664;BME280;13522;50.018;20.014;2023-01-28T18:25:31;99680.83;;;0.20;100.00
25664;BME280;13522;50.018;20.014;2023-01-28T18:28:43;99690.47;;;0.18;100.00
25664;BME280;13522;50.018;20.014;2023-01-28T18:31:56;99694.68;;;0.22;100.00
25664;BME280;13522;50.018;20.014;2023-01-28T18:35:11;99694.84;;;0.17;100.00
25664;BME280;13522;50.018;20.014;2023-01-28T18:38:23;99690.41;;;0.19;100.00
25664;BME280;13522;50.018;20.014;2023-01-28T18:41:35;99685.25;;;0.18;100.00
25664;BME280;13522;50.018;20.014;2023-01-28T18:44:48;99699.05;;;0.21;100.00
25664;BME280;13522;50.018;20.014;2023-01-28T18:48:00;99690.19;;;0.25;100.00
25664;BME280;13522;50.018;20.014;2023-01-28T18:51:13;99684.23;;;0.22;100.00
25664;BME280;13522;50.018;20.014;2023-01-28T18:54:27;99692.16;;;0.19;100.00
25664;BME280;13522;50.018;20.014;2023-01-28T18:57:40;99698.53;;;0.12;100.00
25664;BME280;13522;50.018;20.014;2023-01-28T19:00:52;99688.82;;;0.15;100.00
25664;BME280;13522;50.018;20.014;2023-01-28T19:04:04;99700.92;;;0.18;100.00
25664;BME280;13522;50.018;20.014;2023-01-28T19:07:20;99691.37;;;0.17;100.00
25664;BME280;13522;50.018;20.014;2023-01-28T19:10:32;99695.63;;;0.19;100.00
25664;BME280;13522;50.018;20.014;2023-01-28T19:13:45;99699.68;;;0.28;100.00
25664;BME280;13522;50.018;20.014;2023-01-28T19:16:57;99703.02;;;0.31;100.00
25664;BME280;13522;50.018;20.014;2023-01-28T19:20:11;99700.48;;;0.30;100.00
25664;BME280;13522;50.018;20.014;2023-01-28T19:23:23;99708.12;;;0.34;100.00
25664;BME280;13522;50.018;20.014;2023-01-28T19:26:38;99699.33;;;0.37;100.00
25664;BME280;13522;50.018;20.014;2023-01-28T19:29:52;99707.52;;;0.28;100.00
25664;BME280;13522;50.018;20.014;2023-01-28T19:33:05;99711.75;;;0.30;100.00
25664;BME280;13522;50.018;20.014;2023-01-28T19:36:17;99714.27;;;0.33;100.00
25664;BME280;13522;50.018;20.014;2023-01-28T19:39:31;99712.45;;;0.35;100.00
25664;BME280;13522;50.018;20.014;2023-01-28T19:42:43;99709.94;;;0.32;100.00
25664;BME280;13522;50.018;20.014;2023-01-28T19:45:59;99716.15;;;0.30;100.00
25664;BME280;13522;50.018;20.014;2023-01-28T19:49:10;99712.67;;;0.29;100.00
25664;BME280;13522;50.018;20.014;2023-01-28T19:52:22;99718.13;;;0.23;100.00